createdAt,value
2023-10-15T00:00:32.547Z,6.47
2023-10-15T00:03:00.496Z,5.43
2023-10-15T00:05:28.411Z,6.47
2023-10-15T00:07:58.463Z,6.03
2023-10-15T00:10:28.533Z,5.53
2023-10-15T00:12:58.210Z,7.33
2023-10-15T00:15:30.266Z,7.33
2023-10-15T00:18:04.293Z,6.27
2023-10-15T00:20:37.042Z,5.90
2023-10-15T00:23:08.408Z,6.23
2023-10-15T00:25:39.087Z,5.57
2023-10-15T00:28:11.326Z,6.40
2023-10-15T00:30:41.601Z,5.80
2023-10-15T00:33:13.402Z,5.80
2023-10-15T00:35:51.312Z,6.27
2023-10-15T00:38:20.255Z,5.13
2023-10-15T00:40:53.670Z,5.07
2023-10-15T00:43:21.932Z,5.03
2023-10-15T00:45:50.157Z,5.40
2023-10-15T00:48:29.175Z,6.57
2023-10-15T00:50:57.259Z,5.60
2023-10-15T00:53:28.096Z,5.43
2023-10-15T00:56:05.067Z,5.90
2023-10-15T00:58:38.755Z,5.73
2023-10-15T01:01:19.272Z,5.27
2023-10-15T01:03:52.201Z,5.03
2023-10-15T01:06:30.766Z,5.93
2023-10-15T01:09:33.460Z,6.77
2023-10-15T01:12:19.603Z,5.13
2023-10-15T01:14:47.219Z,5.90
2023-10-15T01:17:14.728Z,5.00
2023-10-15T01:19:42.749Z,5.67
2023-10-15T01:22:18.349Z,4.67
2023-10-15T01:24:51.831Z,5.70
2023-10-15T01:27:28.868Z,5.13
2023-10-15T01:29:56.539Z,5.33
2023-10-15T01:32:24.028Z,5.43
2023-10-15T01:34:54.031Z,6.47
2023-10-15T01:37:22.079Z,5.77
2023-10-15T01:39:54.244Z,5.17
2023-10-15T01:42:28.477Z,6.17
2023-10-15T01:45:10.232Z,6.87
2023-10-15T01:48:01.062Z,5.80
2023-10-15T01:50:35.599Z,5.90
2023-10-15T01:53:03.506Z,4.53
2023-10-15T01:55:32.001Z,5.93
2023-10-15T01:58:02.876Z,6.17
2023-10-15T02:00:42.978Z,5.40
2023-10-15T02:03:14.300Z,3.87
2023-10-15T02:05:42.451Z,5.90
2023-10-15T02:08:14.182Z,5.53
2023-10-15T02:10:47.491Z,6.70
2023-10-15T02:13:18.523Z,6.80
2023-10-15T02:15:47.018Z,7.23
2023-10-15T02:18:20.502Z,5.03
2023-10-15T02:20:52.014Z,5.13
2023-10-15T02:23:21.176Z,5.23
2023-10-15T02:26:01.964Z,8.40
2023-10-15T02:28:36.652Z,5.50
2023-10-15T02:31:04.273Z,5.10
2023-10-15T02:33:32.121Z,7.20
2023-10-15T02:36:07.628Z,5.77
2023-10-15T02:38:35.955Z,4.77
2023-10-15T02:41:03.786Z,4.73
2023-10-15T02:43:32.387Z,3.87
2023-10-15T02:46:13.628Z,6.97
2023-10-15T02:48:42.879Z,5.83
2023-10-15T02:51:10.669Z,3.77
2023-10-15T02:53:40.656Z,5.27
2023-10-15T02:56:14.130Z,3.53
2023-10-15T02:58:44.087Z,4.23
2023-10-15T03:01:18.946Z,4.93
2023-10-15T03:03:51.271Z,4.77
2023-10-15T03:06:29.765Z,5.97
2023-10-15T03:08:57.724Z,6.33
2023-10-15T03:11:26.585Z,5.37
2023-10-15T03:13:57.254Z,5.90
2023-10-15T03:16:37.291Z,5.87
2023-10-15T03:19:18.564Z,7.73
2023-10-15T03:21:46.563Z,4.37
2023-10-15T03:24:15.816Z,6.60
2023-10-15T03:26:48.591Z,5.87
2023-10-15T03:29:16.390Z,6.67
2023-10-15T03:31:55.461Z,6.33
2023-10-15T03:34:24.051Z,6.17
2023-10-15T03:36:53.097Z,6.77
2023-10-15T03:39:47.533Z,7.23
2023-10-15T03:42:14.881Z,4.63
2023-10-15T03:44:47.128Z,8.07
2023-10-15T03:47:16.770Z,8.37
2023-10-15T03:49:47.702Z,6.03
2023-10-15T03:52:16.109Z,6.50
2023-10-15T03:54:49.174Z,7.73
2023-10-15T03:57:28.712Z,6.50
2023-10-15T03:59:56.574Z,6.03
2023-10-15T04:02:28.017Z,6.10
2023-10-15T04:05:04.185Z,8.30
2023-10-15T04:07:32.533Z,5.77
2023-10-15T04:10:00.642Z,6.10
2023-10-15T04:12:29.143Z,6.37
2023-10-15T04:14:57.847Z,6.90
2023-10-15T04:17:25.271Z,7.20
2023-10-15T04:19:52.746Z,7.83
2023-10-15T04:22:20.173Z,7.13
2023-10-15T04:24:51.625Z,6.93
2023-10-15T04:27:19.537Z,7.73
2023-10-15T04:29:52.332Z,6.63
2023-10-15T04:32:30.405Z,7.30
2023-10-15T04:35:02.515Z,6.33
2023-10-15T04:37:31.041Z,10.17
2023-10-15T04:40:17.201Z,7.40
2023-10-15T04:42:52.111Z,8.37
2023-10-15T04:45:36.495Z,7.63
2023-10-15T04:48:13.764Z,4.47
2023-10-15T04:50:44.726Z,5.60
2023-10-15T04:53:16.378Z,6.70
2023-10-15T04:55:44.536Z,7.80
2023-10-15T04:58:12.160Z,5.13
2023-10-15T05:00:45.105Z,6.07
2023-10-15T05:03:13.073Z,7.80
2023-10-15T05:05:43.162Z,8.77
2023-10-15T05:08:14.586Z,7.33
2023-10-15T05:10:52.589Z,4.07
2023-10-15T05:13:20.955Z,7.00
2023-10-15T05:15:49.281Z,5.07
2023-10-15T05:18:20.031Z,6.63
2023-10-15T05:20:49.257Z,6.73
2023-10-15T05:23:17.531Z,7.90
2023-10-15T05:25:45.277Z,6.47
2023-10-15T05:28:16.519Z,7.40
2023-10-15T05:30:44.186Z,7.57
2023-10-15T05:33:11.832Z,6.73
2023-10-15T05:35:40.219Z,5.80
2023-10-15T05:38:11.184Z,6.23
2023-10-15T05:40:39.703Z,6.07
2023-10-15T05:43:07.345Z,7.37
2023-10-15T05:45:35.014Z,4.83
2023-10-15T05:48:02.787Z,6.23
2023-10-15T05:50:30.950Z,6.27
2023-10-15T05:52:58.397Z,6.63
2023-10-15T05:55:26.128Z,5.67
2023-10-15T05:57:53.583Z,6.90
2023-10-15T06:00:27.212Z,6.80
2023-10-15T06:02:55.504Z,5.97
2023-10-15T06:05:23.432Z,7.80
2023-10-15T06:07:51.000Z,7.40
2023-10-15T06:10:18.576Z,6.83
2023-10-15T06:12:46.169Z,6.07
2023-10-15T06:15:19.353Z,5.77
2023-10-15T06:17:48.815Z,4.07
2023-10-15T06:20:17.099Z,4.87
2023-10-15T06:22:49.073Z,6.30
2023-10-15T06:25:19.068Z,5.70
2023-10-15T06:27:47.158Z,4.60
2023-10-15T06:30:21.210Z,6.50
2023-10-15T06:32:54.076Z,6.87
2023-10-15T06:35:25.053Z,6.00
2023-10-15T06:37:58.874Z,5.00
2023-10-15T06:40:28.704Z,5.43
2023-10-15T06:43:02.901Z,5.07
2023-10-15T06:45:31.637Z,5.70
2023-10-15T06:47:59.685Z,7.30
2023-10-15T06:50:28.498Z,6.37
2023-10-15T06:52:58.246Z,7.67
2023-10-15T06:55:25.666Z,7.30
2023-10-15T06:57:54.680Z,5.63
2023-10-15T07:00:22.793Z,6.63
2023-10-15T07:02:51.844Z,8.03
2023-10-15T07:05:25.074Z,7.03
2023-10-15T07:07:54.298Z,7.07
2023-10-15T07:10:22.721Z,6.20
2023-10-15T07:12:53.899Z,5.90
2023-10-15T07:15:22.266Z,5.97
2023-10-15T07:17:51.787Z,6.00
2023-10-15T07:20:20.138Z,6.30
2023-10-15T07:22:50.410Z,6.90
2023-10-15T07:25:22.571Z,7.43
2023-10-15T07:27:51.557Z,5.33
2023-10-15T07:30:23.075Z,5.97
2023-10-15T07:33:00.921Z,5.13
2023-10-15T07:35:30.614Z,6.40
2023-10-15T07:37:59.293Z,8.73
2023-10-15T07:40:27.904Z,4.93
2023-10-15T07:43:00.994Z,5.10
2023-10-15T07:45:32.099Z,4.20
2023-10-15T07:48:06.516Z,5.53
2023-10-15T07:50:38.178Z,4.43
2023-10-15T07:53:07.266Z,6.63
2023-10-15T07:55:35.116Z,5.57
2023-10-15T07:58:02.707Z,7.70
2023-10-15T08:00:31.771Z,7.87
2023-10-15T08:03:01.181Z,4.43
2023-10-15T08:05:35.532Z,5.13
2023-10-15T08:08:05.319Z,6.67
2023-10-15T08:10:35.414Z,3.50
2023-10-15T08:13:03.771Z,4.70
2023-10-15T08:15:37.478Z,4.73
2023-10-15T08:18:05.594Z,5.90
2023-10-15T08:20:33.383Z,5.53
2023-10-15T08:23:02.055Z,2.37
2023-10-15T08:25:33.099Z,2.23
2023-10-15T08:28:02.356Z,2.70
2023-10-15T08:30:31.644Z,3.27
2023-10-15T08:33:00.389Z,5.70
2023-10-15T08:35:28.084Z,4.33
2023-10-15T08:37:55.720Z,4.73
2023-10-15T08:40:23.237Z,5.63
2023-10-15T08:42:56.342Z,3.90
2023-10-15T08:45:24.710Z,7.57
2023-10-15T08:47:54.242Z,4.63
2023-10-15T08:50:23.476Z,3.47
2023-10-15T08:52:55.026Z,4.37
2023-10-15T08:55:25.891Z,2.57
2023-10-15T08:57:58.245Z,5.33
2023-10-15T09:00:31.629Z,4.00
2023-10-15T09:03:02.302Z,2.93
2023-10-15T09:05:35.358Z,2.53
2023-10-15T09:08:11.130Z,4.53
2023-10-15T09:10:42.122Z,3.60
2023-10-15T09:13:17.456Z,2.90
2023-10-15T09:15:51.165Z,4.83
2023-10-15T09:18:19.169Z,3.93
2023-10-15T09:20:52.028Z,3.10
2023-10-15T09:23:23.993Z,3.70
2023-10-15T09:25:57.013Z,4.03
2023-10-15T09:28:29.409Z,4.13
2023-10-15T09:31:08.206Z,3.20
2023-10-15T09:33:36.241Z,1.63
2023-10-15T09:36:05.471Z,2.83
2023-10-15T09:38:34.220Z,2.77
2023-10-15T09:41:06.832Z,4.30
2023-10-15T09:43:38.393Z,4.30
2023-10-15T09:46:07.788Z,3.43
2023-10-15T09:48:38.229Z,2.70
2023-10-15T09:51:08.499Z,4.00
2023-10-15T09:53:36.617Z,2.93
2023-10-15T09:56:13.622Z,1.87
2023-10-15T09:58:42.066Z,2.13
2023-10-15T10:01:27.553Z,2.10
2023-10-15T10:04:01.189Z,2.30
2023-10-15T10:06:53.273Z,2.17
2023-10-15T10:09:52.984Z,3.63
2023-10-15T10:12:29.295Z,2.73
2023-10-15T10:15:41.453Z,2.57
2023-10-15T10:18:09.350Z,1.87
2023-10-15T10:20:39.996Z,1.43
2023-10-15T10:23:08.588Z,2.20
2023-10-15T10:25:59.762Z,1.70
2023-10-15T10:28:27.376Z,7.17
2023-10-15T10:30:59.368Z,2.07
2023-10-15T10:33:45.802Z,2.87
2023-10-15T10:36:16.465Z,1.97
2023-10-15T10:38:48.123Z,1.90
2023-10-15T10:43:48.188Z,3.00
2023-10-15T10:46:23.097Z,1.77
2023-10-15T10:49:06.611Z,1.80
2023-10-15T10:51:37.118Z,1.77
2023-10-15T10:54:04.554Z,2.50
2023-10-15T10:56:40.883Z,1.53
2023-10-15T10:59:12.875Z,2.83
2023-10-15T11:01:41.988Z,2.10
2023-10-15T11:04:11.167Z,3.30
2023-10-15T11:06:40.666Z,3.40
2023-10-15T11:09:17.473Z,1.40
2023-10-15T11:11:53.639Z,2.75
2023-10-15T11:14:24.700Z,1.85
2023-10-15T11:16:53.537Z,3.50
2023-10-15T11:19:24.813Z,2.08
2023-10-15T11:21:53.748Z,2.38
2023-10-15T11:24:24.594Z,2.43
2023-10-15T11:26:55.791Z,1.30
2023-10-15T11:29:25.175Z,2.20
2023-10-15T11:31:57.725Z,1.87
2023-10-15T11:34:27.494Z,3.10
2023-10-15T11:36:58.890Z,3.00
2023-10-15T11:39:39.208Z,4.53
2023-10-15T11:42:09.288Z,2.37
2023-10-15T11:44:44.599Z,7.27
2023-10-15T11:47:17.076Z,5.57
2023-10-15T11:49:45.609Z,2.60
2023-10-15T11:52:20.202Z,2.40
2023-10-15T11:54:52.128Z,1.67
2023-10-15T11:57:24.106Z,3.20
2023-10-15T11:59:56.212Z,3.17
2023-10-15T12:02:27.165Z,4.97
2023-10-15T12:04:58.778Z,3.15
2023-10-15T12:07:29.643Z,3.95
2023-10-15T12:09:59.127Z,3.67
2023-10-15T12:12:27.467Z,2.67
2023-10-15T12:14:55.325Z,1.35
2023-10-15T12:17:24.885Z,2.03
2023-10-15T12:20:04.183Z,2.42
2023-10-15T12:22:40.559Z,3.25
2023-10-15T12:25:08.447Z,2.75
2023-10-15T12:27:35.873Z,2.85
2023-10-15T12:30:05.652Z,1.33
2023-10-15T12:32:45.664Z,2.53
2023-10-15T12:35:14.762Z,1.30
2023-10-15T12:37:42.358Z,3.58
2023-10-15T12:40:14.314Z,7.25
2023-10-15T12:42:42.689Z,3.83
2023-10-15T12:45:11.298Z,2.45
2023-10-15T12:47:40.878Z,3.38
2023-10-15T12:50:18.485Z,2.88
2023-10-15T12:52:46.888Z,2.65
2023-10-15T12:55:20.126Z,2.00
2023-10-15T12:57:48.911Z,3.45
2023-10-15T13:00:19.851Z,4.47
2023-10-15T13:02:51.503Z,2.25
2023-10-15T13:05:23.691Z,3.47
2023-10-15T13:07:53.237Z,2.95
2023-10-15T13:10:22.182Z,2.10
2023-10-15T13:12:52.115Z,1.90
2023-10-15T13:15:20.341Z,2.45
2023-10-15T13:17:50.856Z,2.53
2023-10-15T13:20:22.550Z,2.55
2023-10-15T13:22:50.645Z,2.28
2023-10-15T13:25:18.514Z,2.92
2023-10-15T13:27:45.971Z,1.30
2023-10-15T13:30:14.510Z,3.47
2023-10-15T13:32:43.150Z,1.33
2023-10-15T13:35:12.574Z,1.45
2023-10-15T13:37:41.535Z,1.75
2023-10-15T13:40:10.431Z,1.95
2023-10-15T13:42:43.477Z,1.17
2023-10-15T13:45:11.998Z,1.60
2023-10-15T13:47:39.941Z,1.50
2023-10-15T13:50:10.833Z,1.58
2023-10-15T13:52:38.636Z,2.38
2023-10-15T13:55:08.292Z,1.73
2023-10-15T13:57:39.731Z,2.63
2023-10-15T14:00:17.674Z,2.22
2023-10-15T14:02:47.187Z,3.42
2023-10-15T14:05:17.457Z,3.45
2023-10-15T14:07:50.291Z,2.63
2023-10-15T14:10:18.373Z,3.75
2023-10-15T14:12:47.897Z,2.85
2023-10-15T14:15:15.623Z,0.98
2023-10-15T14:17:45.207Z,1.38
2023-10-15T14:20:17.555Z,1.85
2023-10-15T14:22:46.767Z,2.05
2023-10-15T14:25:14.732Z,1.48
2023-10-15T14:27:42.505Z,2.00
2023-10-15T14:30:11.380Z,1.35
2023-10-15T14:32:39.907Z,1.73
2023-10-15T14:35:12.346Z,1.95
2023-10-15T14:37:42.732Z,1.67
2023-10-15T14:40:11.478Z,1.15
2023-10-15T14:42:39.360Z,0.98
2023-10-15T14:45:07.931Z,2.88
2023-10-15T14:47:35.558Z,1.45
2023-10-15T14:50:04.415Z,1.70
2023-10-15T14:52:32.118Z,1.83
2023-10-15T14:54:59.723Z,1.83
2023-10-15T14:57:27.272Z,1.23
2023-10-15T14:59:54.702Z,1.70
2023-10-15T15:02:22.225Z,2.33
2023-10-15T15:04:50.932Z,1.60
2023-10-15T15:07:18.410Z,2.30
2023-10-15T15:09:45.900Z,1.97
2023-10-15T15:12:13.695Z,1.80
2023-10-15T15:14:41.099Z,1.97
2023-10-15T15:17:08.691Z,2.63
2023-10-15T15:19:36.337Z,1.83
2023-10-15T15:22:05.937Z,1.97
2023-10-15T15:24:35.127Z,1.63
2023-10-15T15:27:02.628Z,3.47
2023-10-15T15:29:30.395Z,2.23
2023-10-15T15:31:58.031Z,3.40
2023-10-15T15:34:25.797Z,4.57
2023-10-15T15:36:53.296Z,2.30
2023-10-15T15:39:20.733Z,3.37
2023-10-15T15:41:48.173Z,3.87
2023-10-15T15:44:15.680Z,2.77
2023-10-15T15:46:44.659Z,1.87
2023-10-15T15:49:12.817Z,2.60
2023-10-15T15:51:40.473Z,2.00
2023-10-15T15:54:10.966Z,6.27
2023-10-15T15:56:38.382Z,4.57
2023-10-15T15:59:06.880Z,3.90
2023-10-15T16:01:44.828Z,2.10
2023-10-15T16:04:13.361Z,2.87
2023-10-15T16:06:40.987Z,2.17
2023-10-15T16:09:10.484Z,2.90
2023-10-15T16:11:38.625Z,3.53
2023-10-15T16:14:06.982Z,5.10
2023-10-15T16:16:34.452Z,3.50
2023-10-15T16:19:01.935Z,5.63
2023-10-15T16:21:29.491Z,25.77
2023-10-15T16:23:56.926Z,3.43
2023-10-15T16:26:25.254Z,3.17
2023-10-15T16:28:53.223Z,5.23
2023-10-15T16:31:20.713Z,2.53
2023-10-15T16:33:48.339Z,3.70
2023-10-15T16:36:15.756Z,2.43
2023-10-15T16:38:43.305Z,2.60
2023-10-15T16:41:10.749Z,2.67
2023-10-15T16:43:38.227Z,2.77
2023-10-15T16:46:06.357Z,3.30
2023-10-15T16:48:34.060Z,2.50
2023-10-15T16:51:13.845Z,3.23
2023-10-15T16:53:48.986Z,1.93
2023-10-15T16:56:16.466Z,2.60
2023-10-15T16:58:43.984Z,2.60
2023-10-15T17:01:12.525Z,3.37
2023-10-15T17:03:40.055Z,3.53
2023-10-15T17:06:07.723Z,2.40
2023-10-15T17:08:35.234Z,3.33
2023-10-15T17:11:02.710Z,2.83
2023-10-15T17:13:30.164Z,2.53
2023-10-15T17:15:57.546Z,2.63
2023-10-15T17:18:25.031Z,1.17
2023-10-15T17:20:52.470Z,3.23
2023-10-15T17:23:19.971Z,3.73
2023-10-15T17:25:47.402Z,1.47
2023-10-15T17:28:14.829Z,1.80
2023-10-15T17:30:46.429Z,2.83
2023-10-15T17:33:14.706Z,3.00
2023-10-15T17:35:42.131Z,3.67
2023-10-15T17:38:10.170Z,2.57
2023-10-15T17:40:37.564Z,3.90
2023-10-15T17:43:04.974Z,3.27
2023-10-15T17:45:33.935Z,2.50
2023-10-15T17:48:01.773Z,2.30
2023-10-15T17:50:30.179Z,1.83
2023-10-15T17:52:58.099Z,2.03
2023-10-15T17:55:25.606Z,3.07
2023-10-15T17:57:53.833Z,2.93
2023-10-15T18:00:21.355Z,3.50
2023-10-15T18:02:48.863Z,1.20
2023-10-15T18:05:16.454Z,3.03
2023-10-15T18:07:46.063Z,1.87
2023-10-15T18:10:13.637Z,1.80
2023-10-15T18:12:41.732Z,3.53
2023-10-15T18:15:11.931Z,3.13
2023-10-15T18:17:39.472Z,2.57
2023-10-15T18:20:07.374Z,2.63
2023-10-15T18:22:34.820Z,2.43
2023-10-15T18:25:02.178Z,2.77
2023-10-15T18:27:30.033Z,2.70
2023-10-15T18:29:57.529Z,2.87
2023-10-15T18:32:24.944Z,2.10
2023-10-15T18:34:52.362Z,3.80
2023-10-15T18:37:19.760Z,2.50
2023-10-15T18:39:47.154Z,3.47
2023-10-15T18:42:15.740Z,2.73
2023-10-15T18:44:44.201Z,3.37
2023-10-15T18:47:12.411Z,2.07
2023-10-15T18:49:39.797Z,3.73
2023-10-15T18:52:07.282Z,2.53
2023-10-15T18:54:34.863Z,3.03
2023-10-15T18:57:02.473Z,3.20
2023-10-15T18:59:30.369Z,2.13
2023-10-15T19:01:57.846Z,1.70
2023-10-15T19:04:25.923Z,2.93
2023-10-15T19:06:53.596Z,4.43
2023-10-15T19:09:21.070Z,2.33
2023-10-15T19:11:49.187Z,3.93
2023-10-15T19:14:17.487Z,3.90
2023-10-15T19:16:46.687Z,3.40
2023-10-15T19:19:15.238Z,5.70
2023-10-15T19:21:42.853Z,3.93
2023-10-15T19:24:10.488Z,2.10
2023-10-15T19:26:37.932Z,3.20
2023-10-15T19:29:05.572Z,2.60
2023-10-15T19:31:33.758Z,4.37
2023-10-15T19:34:02.164Z,2.60
2023-10-15T19:36:29.755Z,2.50
2023-10-15T19:38:58.286Z,3.60
2023-10-15T19:41:28.377Z,3.70
2023-10-15T19:43:56.369Z,2.00
2023-10-15T19:46:23.919Z,2.40
2023-10-15T19:48:51.381Z,4.10
2023-10-15T19:51:19.310Z,2.53
2023-10-15T19:53:48.958Z,3.00
2023-10-15T19:56:17.159Z,3.20
2023-10-15T19:58:44.816Z,2.07
2023-10-15T20:01:13.377Z,2.97
2023-10-15T20:03:50.950Z,2.53
2023-10-15T20:06:30.090Z,4.83
2023-10-15T20:08:57.584Z,2.40
2023-10-15T20:11:25.849Z,2.50
2023-10-15T20:13:54.369Z,3.90
2023-10-15T20:16:23.557Z,2.67
2023-10-15T20:18:51.347Z,2.77
2023-10-15T20:21:19.240Z,2.63
2023-10-15T20:23:48.147Z,4.20
2023-10-15T20:26:15.662Z,4.40
2023-10-15T20:28:43.148Z,4.33
2023-10-15T20:31:10.760Z,3.40
2023-10-15T20:33:38.359Z,4.20
2023-10-15T20:36:06.332Z,3.43
2023-10-15T20:38:34.643Z,3.37
2023-10-15T20:41:02.158Z,4.67
2023-10-15T20:43:29.642Z,6.67
2023-10-15T20:45:57.148Z,4.20
2023-10-15T20:48:24.612Z,5.33
2023-10-15T20:50:52.167Z,3.83
2023-10-15T20:53:19.537Z,2.80
2023-10-15T20:55:47.074Z,5.30
2023-10-15T20:58:14.443Z,3.30
2023-10-15T21:00:42.005Z,4.10
2023-10-15T21:03:09.679Z,4.03
2023-10-15T21:05:37.251Z,3.73
2023-10-15T21:08:07.237Z,2.70
2023-10-15T21:10:36.557Z,3.70
2023-10-15T21:13:04.217Z,3.40
2023-10-15T21:15:32.741Z,4.20
2023-10-15T21:18:00.354Z,3.27
2023-10-15T21:20:28.638Z,2.63
2023-10-15T21:22:56.603Z,3.80
2023-10-15T21:25:24.115Z,2.47
2023-10-15T21:27:52.388Z,3.03
2023-10-15T21:30:22.243Z,4.00
2023-10-15T21:32:50.163Z,3.77
2023-10-15T21:35:17.741Z,3.13
2023-10-15T21:37:45.991Z,2.63
2023-10-15T21:40:16.116Z,3.30
2023-10-15T21:42:47.784Z,2.20
2023-10-15T21:45:15.731Z,4.10
2023-10-15T21:47:43.890Z,2.13
2023-10-15T21:50:14.441Z,2.90
2023-10-15T21:52:42.572Z,3.27
2023-10-15T21:55:11.777Z,2.00
2023-10-15T21:57:42.916Z,2.77
2023-10-15T22:00:29.827Z,3.63
2023-10-15T22:02:58.425Z,2.03
2023-10-15T22:05:26.488Z,2.20
2023-10-15T22:07:53.896Z,2.70
2023-10-15T22:10:22.257Z,2.60
2023-10-15T22:12:52.331Z,2.47
2023-10-15T22:15:19.774Z,2.57
2023-10-15T22:17:50.269Z,2.70
2023-10-15T22:20:28.322Z,2.73
2023-10-15T22:22:57.840Z,2.27
2023-10-15T22:25:25.387Z,2.63
2023-10-15T22:27:53.046Z,3.20
2023-10-15T22:30:20.745Z,3.53
2023-10-15T22:32:51.567Z,3.07
2023-10-15T22:35:23.411Z,2.40
2023-10-15T22:37:53.201Z,2.90
2023-10-15T22:40:25.663Z,2.57
2023-10-15T22:42:53.185Z,3.10
2023-10-15T22:45:21.841Z,2.93
2023-10-15T22:47:51.269Z,2.40
2023-10-15T22:50:18.746Z,3.63
2023-10-15T22:52:46.208Z,3.73
2023-10-15T22:55:13.727Z,3.03
2023-10-15T22:57:42.928Z,2.77
2023-10-15T23:00:12.581Z,3.90
2023-10-15T23:02:42.313Z,3.40
2023-10-15T23:05:11.324Z,3.83
2023-10-15T23:07:39.028Z,3.30
2023-10-15T23:10:11.140Z,3.50
2023-10-15T23:12:41.575Z,4.97
2023-10-15T23:15:19.348Z,1.97
2023-10-15T23:17:48.260Z,2.40
2023-10-15T23:20:17.043Z,5.57
2023-10-15T23:22:47.254Z,2.83
2023-10-15T23:25:16.167Z,2.23
2023-10-15T23:27:43.896Z,3.93
2023-10-15T23:30:13.302Z,2.10
2023-10-15T23:32:40.961Z,2.57
2023-10-15T23:35:10.320Z,5.70
2023-10-15T23:37:39.341Z,2.77
2023-10-15T23:40:13.922Z,2.83
2023-10-15T23:42:42.733Z,2.47
2023-10-15T23:45:10.658Z,2.90
2023-10-15T23:47:40.966Z,2.07
2023-10-15T23:50:16.543Z,2.20
2023-10-15T23:52:46.764Z,3.33
2023-10-15T23:55:17.285Z,3.00
2023-10-15T23:57:52.504Z,3.33
